Stormwatcher's Retreat Logo




                  Temp     Hi    Low   Out    Dew  Wind  Wind   Wind    Hi    Hi   Wind   Heat    THW   THSW                Rain  Solar   Solar Hi Solar   UV    UV    Hi     Heat    Cool    In     In    In     In     In   In Air          Wind  Wind    ISS   Arc.
  Date    Time     Out   Temp   Temp   Hum    Pt. Speed   Dir    Run Speed   Dir  Chill  Index  Index  Index   Bar    Rain  Rate   Rad.  Energy    Rad.  Index  Dose   UV     D-D     D-D    Temp   Hum    Dew   Heat    EMC Density     ET   Samp   Tx   Recept  Int.
------------------------------------------------------------------------------------------------------------------------------------------------------------------------------------------------------------------------------------------------------------------------
10/24/20 12:10a   55.3   55.5   55.3    97   54.5   7.0     N   1.17  13.0   NNW   53.6   55.6   53.9   51.6  30.031  0.00  0.00     0     0.00      0     0.0  0.00   0.0   0.067   0.000   68.8    52   50.5   67.6   9.67  .0744    0.000   203    7    100.0   10 
10/24/20 12:20a   55.3   55.4   55.3    97   54.5   2.0   NNE   0.33   5.0    NE   55.3   55.6   55.6   53.3  30.034  0.00  0.00     0     0.00      0     0.0  0.00   0.0   0.067   0.000   68.8    52   50.5   67.6   9.67  .0745    0.000   204    7    100.0   10 
10/24/20 12:30a   55.3   55.3   55.2    97   54.5   0.0   NNE   0.00   2.0   NNE   55.3   55.6   55.6   53.3  30.037  0.00  0.00     0     0.00      0     0.0  0.00   0.0   0.067   0.000   68.8    52   50.5   67.6   9.67  .0745    0.000   203    7    100.0   10 
10/24/20 12:40a   55.3   55.3   55.2    97   54.5   0.0   NNE   0.00   3.0   NNE   55.3   55.6   55.6   53.3  30.038  0.00  0.00     0     0.00      0     0.0  0.00   0.0   0.067   0.000   68.8    52   50.5   67.6   9.67  .0745    0.000   201    7    100.0   10 
10/24/20 12:50a   55.2   55.3   55.2    97   54.4   1.0   NNE   0.17   3.0   NNE   55.2   55.5   55.5   53.2  30.039  0.00  0.00     0     0.00      0     0.0  0.00   0.0   0.068   0.000   68.8    53   51.0   67.7   9.87  .0744    0.000   205    7    100.0   10 
10/24/20  1:00a   55.1   55.3   55.0    97   54.3   1.0   NNE   0.17   3.0   NNE   55.1   55.4   55.4   53.1  30.043  0.00  0.00     0     0.00      0     0.0  0.00   0.0   0.069   0.000   68.7    53   50.9   67.6   9.88  .0745    0.000   204    7    100.0   10 
10/24/20  1:10a   54.9   55.1   54.9    97   54.1   0.0   ---   0.00   0.0   ---   54.9   55.2   55.2   52.9  30.044  0.00  0.00     0     0.00      0     0.0  0.00   0.0   0.070   0.000   68.7    53   50.9   67.6   9.88  .0745    0.000   203    7    100.0   10 
10/24/20  1:20a   54.8   55.0   54.8    97   54.0   1.0   NNE   0.17   5.0     N   54.8   55.1   55.1   52.8  30.047  0.00  0.00     0     0.00      0     0.0  0.00   0.0   0.071   0.000   68.7    53   50.9   67.6   9.88  .0745    0.000   203    7    100.0   10 
10/24/20  1:30a   54.2   54.8   54.2    96   53.1   5.0     N   0.83   9.0   NNW   53.1   54.4   53.3   51.0  30.049  0.00  0.00     0     0.00      0     0.0  0.00   0.0   0.075   0.000   68.6    53   50.8   67.5   9.88  .0745    0.000   205    7    100.0   10 
10/24/20  1:40a   55.0   55.0   54.2    96   53.9   5.0   NNW   0.83   8.0   NNW   54.1   55.2   54.3   52.0  30.051  0.00  0.00     0     0.00      0     0.0  0.00   0.0   0.069   0.000   68.6    53   50.8   67.5   9.88  .0745    0.000   204    7    100.0   10 
10/24/20  1:50a   55.1   55.1   55.0    94   53.4   8.0   NNW   1.33  14.0   NNW   52.6   55.3   52.8   50.6  30.053  0.00  0.00     0     0.00      0     0.0  0.00   0.0   0.069   0.000   68.6    53   50.8   67.5   9.88  .0745    0.000   202    7    100.0   10 
10/24/20  2:00a   55.1   55.1   55.0    93   53.1   8.0   NNW   1.33  11.0     N   52.6   55.3   52.8   50.6  30.053  0.00  0.00     0     0.00      0     0.0  0.00   0.0   0.069   0.000   68.6    53   50.8   67.5   9.88  .0745    0.000   204    7    100.0   10 
10/24/20  2:10a   55.1   55.1   55.0    93   53.1   6.0     N   1.00  10.0     N   53.7   55.3   53.9   51.6  30.053  0.00  0.00     0     0.00      0     0.0  0.00   0.0   0.069   0.000   68.6    53   50.8   67.5   9.88  .0745    0.000   204    7    100.0   10 
10/24/20  2:20a   55.2   55.3   55.1    92   52.9   5.0     N   0.83   9.0   NNW   54.3   55.3   54.4   52.0  30.057  0.00  0.00     0     0.00      0     0.0  0.00   0.0   0.068   0.000   68.5    53   50.7   67.4   9.88  .0745    0.000   203    7    100.0   10 
10/24/20  2:30a   55.3   55.4   55.2    92   53.0   4.0     N   0.67   8.0     N   55.0   55.4   55.1   52.8  30.057  0.00  0.00     0     0.00      0     0.0  0.00   0.0   0.067   0.000   68.5    53   50.7   67.4   9.88  .0745    0.000   202    7    100.0   10 
10/24/20  2:40a   55.3   55.4   55.2    92   53.0   5.0     N   0.83   8.0     N   54.5   55.4   54.6   52.3  30.055  0.00  0.00     0     0.00      0     0.0  0.00   0.0   0.067   0.000   68.5    53   50.7   67.4   9.88  .0745    0.000   203    7    100.0   10 
10/24/20  2:50a   54.3   55.3   54.3    92   52.0  10.0   NNW   1.67  17.0   NNW   50.3   54.4   50.4   48.3  30.059  0.00  0.00     0     0.00      0     0.0  0.00   0.0   0.074   0.000   68.5    53   50.7   67.4   9.88  .0746    0.000   204    7    100.0   10 
10/24/20  3:00a   54.2   54.3   54.1    92   51.9   5.0     N   0.83  10.0     N   53.1   54.3   53.2   50.8  30.056  0.00  0.00     0     0.00      0     0.0  0.00   0.0   0.075   0.000   68.4    53   50.6   67.3   9.88  .0746    0.000   204    7    100.0   10 
10/24/20  3:10a   54.3   54.3   54.2    93   52.3   4.0     N   0.67   9.0     N   53.8   54.5   54.0   51.6  30.056  0.00  0.00     0     0.00      0     0.0  0.00   0.0   0.074   0.000   68.4    53   50.6   67.3   9.88  .0746    0.000   204    7    100.0   10 
10/24/20  3:20a   54.6   54.6   54.3    92   52.3   7.0     N   1.17  11.0   NNW   52.7   54.7   52.8   50.4  30.057  0.00  0.00     0     0.00      0     0.0  0.00   0.0   0.072   0.000   68.4    53   50.6   67.3   9.88  .0746    0.000   201    7    100.0   10 
10/24/20  3:30a   54.9   54.9   54.6    89   51.7  10.0   NNW   1.67  14.0   NNW   51.0   55.0   51.1   49.0  30.055  0.00  0.00     0     0.00      0     0.0  0.00   0.0   0.070   0.000   68.4    53   50.6   67.3   9.88  .0746    0.000   205    7    100.0   10 
10/24/20  3:40a   55.1   55.1   54.9    88   51.6  10.0   NNW   1.67  13.0   NNW   51.2   55.1   51.2   49.1  30.055  0.00  0.00     0     0.00      0     0.0  0.00   0.0   0.069   0.000   68.4    53   50.6   67.3   9.88  .0746    0.000   202    7    100.0   10 
10/24/20  3:50a   55.2   55.2   55.1    88   51.7  11.0   NNW   1.83  18.0   NNW   50.8   55.2   50.8   48.8  30.054  0.00  0.00     0     0.00      0     0.0  0.00   0.0   0.068   0.000   68.3    53   50.5   67.3   9.88  .0746    0.000   201    7    100.0   10 
10/24/20  4:00a   55.2   55.4   55.2    87   51.4  11.0   NNW   1.83  16.0     N   50.8   55.2   50.8   48.8  30.056  0.00  0.00     0     0.00      0     0.0  0.00   0.0   0.068   0.000   68.3    53   50.5   67.3   9.88  .0746    0.001   204    7    100.0   10 
10/24/20  4:10a   55.2   55.4   55.2    87   51.4  14.0   NNW   2.33  19.0   NNW   49.4   55.2   49.4   47.6  30.056  0.00  0.00     0     0.00      0     0.0  0.00   0.0   0.068   0.000   68.3    53   50.5   67.3   9.88  .0746    0.000   204    7    100.0   10 
10/24/20  4:20a   55.3   55.4   55.2    87   51.5  12.0   NNW   2.00  17.0   NNW   50.4   55.3   50.4   48.4  30.059  0.00  0.00     0     0.00      0     0.0  0.00   0.0   0.067   0.000   68.2    53   50.4   67.2   9.89  .0746    0.000   203    7    100.0   10 
10/24/20  4:30a   55.3   55.4   55.3    87   51.5  13.0   NNW   2.17  17.0   NNW   49.9   55.3   49.9   48.0  30.062  0.00  0.00     0     0.00      0     0.0  0.00   0.0   0.067   0.000   68.2    53   50.4   67.2   9.89  .0746    0.000   203    7    100.0   10 
10/24/20  4:40a   55.2   55.3   55.2    87   51.4  12.0   NNW   2.00  16.0   NNW   50.2   55.2   50.2   48.2  30.062  0.00  0.00     0     0.00      0     0.0  0.00   0.0   0.068   0.000   68.2    53   50.4   67.2   9.89  .0746    0.000   205    7    100.0   10 
10/24/20  4:50a   54.9   55.2   54.8    87   51.1   9.0     N   1.50  14.0     N   51.7   54.9   51.7   49.5  30.063  0.00  0.00     0     0.00      0     0.0  0.00   0.0   0.070   0.000   68.2    53   50.4   67.2   9.89  .0746    0.000   203    7    100.0   10 
10/24/20  5:00a   54.5   54.8   54.4    88   51.0   8.0     N   1.33  12.0   NNE   51.9   54.5   51.9   49.6  30.066  0.00  0.00     0     0.00      0     0.0  0.00   0.0   0.073   0.000   68.1    53   50.3   67.1   9.89  .0746    0.001   203    7    100.0   10 
10/24/20  5:10a   54.3   54.5   54.3    87   50.5   8.0     N   1.33  12.0   ENE   51.7   54.3   51.7   49.4  30.068  0.00  0.00     0     0.00      0     0.0  0.00   0.0   0.074   0.000   68.1    53   50.3   67.1   9.89  .0746    0.000   204    7    100.0   10 
10/24/20  5:20a   54.2   54.3   54.2    88   50.7   8.0    NE   1.33  13.0   NNW   51.5   54.2   51.5   49.2  30.070  0.00  0.00     0     0.00      0     0.0  0.00   0.0   0.075   0.000   68.1    53   50.3   67.1   9.89  .0746    0.000   205    7    100.0   10 
10/24/20  5:30a   53.9   54.2   53.9    88   50.4   9.0    NE   1.50  15.0    NE   50.5   53.9   50.5   48.3  30.073  0.00  0.00     0     0.00      0     0.0  0.00   0.0   0.077   0.000   68.1    53   50.3   67.1   9.89  .0747    0.000   201    7    100.0   10 
10/24/20  5:40a   54.0   54.0   53.9    87   50.2   9.0   NNE   1.50  14.0   ENE   50.6   54.0   50.6   48.4  30.077  0.00  0.00     0     0.00      0     0.0  0.00   0.0   0.076   0.000   68.2    53   50.4   67.2   9.89  .0746    0.000   203    7    100.0   10 
10/24/20  5:50a   53.9   54.0   53.9    87   50.1   9.0   NNE   1.50  15.0   NNE   50.5   53.9   50.5   48.3  30.081  0.00  0.00     0     0.00      0     0.0  0.00   0.0   0.077   0.000   68.4    54   51.1   67.4  10.01  .0746    0.000   204    7    100.0   10 
10/24/20  6:00a   53.8   54.0   53.8    88   50.3   4.0   ENE   0.67  10.0   NNE   53.3   53.8   53.3   50.9  30.086  0.00  0.00     0     0.00      0     0.0  0.00   0.0   0.078   0.000   68.5    54   51.2   67.5  10.01  .0746    0.001   205    7    100.0   10 
10/24/20  6:10a   53.4   53.7   53.4    89   50.2   4.0   ENE   0.67   9.0   ENE   52.8   53.5   52.9   50.5  30.085  0.00  0.00     0     0.00      0     0.0  0.00   0.0   0.081   0.000   68.8    54   51.5   67.8  10.00  .0745    0.000   203    7    100.0   10 
10/24/20  6:20a   53.2   53.4   53.2    89   50.0   3.0   ENE   0.50   9.0    NE   53.2   53.3   53.3   50.9  30.087  0.00  0.00     0     0.00      0     0.0  0.00   0.0   0.082   0.000   69.0    54   51.7   67.9   9.99  .0745    0.000   202    7    100.0   10 
10/24/20  6:30a   53.0   53.2   53.0    89   49.8   3.0     E   0.50   9.0   ENE   53.0   53.1   53.1   50.6  30.088  0.00  0.00     0     0.00      0     0.0  0.00   0.0   0.083   0.000   69.2    54   51.8   68.1   9.98  .0745    0.000   202    7    100.0   10 
10/24/20  6:40a   52.7   53.0   52.7    89   49.5   3.0   ENE   0.50   5.0   ENE   52.7   52.8   52.8   50.3  30.092  0.00  0.00     0     0.00      0     0.0  0.00   0.0   0.085   0.000   69.5    54   52.1   68.3   9.97  .0744    0.000   205    7    100.0   10 
10/24/20  6:50a   52.6   52.8   52.6    89   49.4   3.0   ENE   0.50   6.0     E   52.6   52.7   52.7   50.2  30.093  0.00  0.00     0     0.00      0     0.0  0.00   0.0   0.086   0.000   69.9    55   53.0   68.6  10.15  .0744    0.000   203    7    100.0   10 
10/24/20  7:00a   52.7   52.7   52.6    88   49.2   3.0     E   0.50   6.0     E   52.7   52.8   52.8   50.3  30.098  0.00  0.00     0     0.00      0     0.0  0.00   0.0   0.085   0.000   70.2    54   52.8   68.9   9.95  .0743    0.000   204    7    100.0   10 
10/24/20  7:10a   53.1   53.1   52.6    88   49.6   2.0    NE   0.33   5.0   ENE   53.1   53.1   53.1   50.6  30.100  0.00  0.00     0     0.00      0     0.0  0.00   0.0   0.083   0.000   70.2    54   52.8   68.9   9.95  .0743    0.000   203    7    100.0   10 
10/24/20  7:20a   53.0   53.2   53.0    88   49.5   2.0    NE   0.33   5.0     N   53.0   53.0   53.0   50.5  30.104  0.00  0.00     0     0.00      0     0.0  0.00   0.0   0.083   0.000   70.1    54   52.7   68.7   9.95  .0744    0.000   205    7    100.0   10 
10/24/20  7:30a   53.1   53.1   52.8    89   49.9   3.0    NE   0.50   6.0     N   53.1   53.2   53.2   50.7  30.105  0.00  0.00     0     0.00      0     0.0  0.00   0.0   0.083   0.000   70.0    54   52.6   68.6   9.95  .0744    0.000   203    7    100.0   10 
10/24/20  7:40a   53.1   53.2   53.0    89   49.9   3.0    NE   0.50   9.0    NE   53.1   53.2   53.2   50.7  30.108  0.00  0.00     0     0.00      0     0.0  0.00   0.0   0.083   0.000   69.9    54   52.5   68.5   9.95  .0744    0.000   203    7    100.0   10 
10/24/20  7:50a   53.1   53.2   53.0    88   49.6   2.0    NE   0.33   9.0   NNW   53.1   53.1   53.1   50.6  30.109  0.00  0.00     0     0.00      0     0.0  0.00   0.0   0.083   0.000   69.8    54   52.4   68.5   9.96  .0744    0.000   200    7    100.0   10 
10/24/20  8:00a   53.0   53.1   52.9    89   49.8   1.0    NE   0.17   4.0     N   53.0   53.1   53.1   50.6  30.110  0.00  0.00     0     0.00      0     0.0  0.00   0.0   0.083   0.000   69.7    54   52.3   68.4   9.96  .0745    0.000   203    7    100.0   10 
10/24/20  8:10a   52.9   53.0   52.9    89   49.7   2.0   ENE   0.33   5.0   ENE   52.9   53.0   53.0   50.6  30.112  0.00  0.00     2     0.03      5     0.0  0.00   0.0   0.084   0.000   69.6    54   52.2   68.3   9.97  .0745    0.000   201    7    100.0   10 
10/24/20  8:20a   52.8   52.9   52.8    89   49.6   2.0   ENE   0.33   5.0   ENE   52.8   52.9   52.9   50.7  30.115  0.00  0.00    13     0.19     16     0.0  0.00   0.0   0.085   0.000   69.6    54   52.2   68.3   9.97  .0745    0.000   204    7    100.0   10 
10/24/20  8:30a   52.8   52.9   52.7    89   49.6   2.0   ENE   0.33   7.0     E   52.8   52.9   52.9   50.9  30.119  0.00  0.00    19     0.27     23     0.0  0.00   0.0   0.085   0.000   69.5    54   52.1   68.3   9.97  .0745    0.000   202    7    100.0   10 
10/24/20  8:40a   52.7   52.8   52.6    89   49.5   3.0   ENE   0.50   7.0   ENE   52.7   52.8   52.8   50.9  30.124  0.00  0.00    25     0.36     26     0.0  0.00   0.0   0.085   0.000   69.5    54   52.1   68.3   9.97  .0745    0.000   203    7    100.0   10 
10/24/20  8:50a   52.6   52.7   52.5    88   49.1   4.0     E   0.67  10.0     E   51.9   52.7   52.0   51.5  30.124  0.00  0.00    30     0.43     32     0.0  0.00   0.0   0.086   0.000   69.5    54   52.1   68.3   9.97  .0745    0.000   203    7    100.0   10 
10/24/20  9:00a   52.6   52.7   52.6    87   48.8   3.0   ENE   0.50   8.0   ENE   52.6   52.6   52.6   52.4  30.125  0.00  0.00    39     0.56     49     0.0  0.00   0.0   0.086   0.000   69.5    54   52.1   68.3   9.97  .0745    0.001   204    7    100.0   10 
10/24/20  9:10a   52.8   52.8   52.6    86   48.7   3.0     E   0.50   9.0   ENE   52.8   52.8   52.8   53.4  30.127  0.00  0.00    58     0.83     65     0.0  0.00   0.0   0.085   0.000   69.5    54   52.1   68.3   9.97  .0745    0.000   205    7    100.0   10 
10/24/20  9:20a   53.0   53.0   52.8    86   48.9   2.0   ENE   0.33   7.0   ENE   53.0   52.9   52.9   53.9  30.129  0.00  0.00    69     0.99     81     0.0  0.00   0.0   0.083   0.000   69.5    54   52.1   68.3   9.97  .0745    0.000   202    7    100.0   10 
10/24/20  9:30a   53.3   53.3   53.0    85   48.9   2.0   ENE   0.33   5.0   ENE   53.3   53.2   53.2   55.2  30.135  0.00  0.00    96     1.38    105     0.0  0.00   0.0   0.081   0.000   69.6    54   52.2   68.3   9.97  .0745    0.000   203    7    100.0   10 
10/24/20  9:40a   53.7   53.7   53.3    85   49.3   1.0   ENE   0.17   3.0   ENE   53.7   53.6   53.6   56.4  30.137  0.00  0.00   117     1.68    128     0.3  0.02   0.5   0.078   0.000   69.6    54   52.2   68.3   9.97  .0745    0.000   204    7    100.0   10 
10/24/20  9:50a   54.1   54.2   53.6    85   49.7   1.0    NE   0.17   3.0   ENE   54.1   54.0   54.0   57.4  30.143  0.00  0.00   139     1.99    155     0.6  0.04   0.6   0.076   0.000   69.7    54   52.3   68.4   9.96  .0745    0.000   205    7    100.0   10 
10/24/20 10:00a   54.6   54.6   54.1    86   50.5   1.0    NE   0.17   3.0    NE   54.6   54.5   54.5   58.0  30.145  0.00  0.00   144     2.06    149     0.6  0.04   0.6   0.072   0.000   69.7    54   52.3   68.4   9.96  .0745    0.002   202    7    100.0   10 
10/24/20 10:10a   54.6   54.8   54.5    86   50.5   3.0    NE   0.50   8.0   NNE   54.6   54.5   54.5   57.1  30.147  0.00  0.00   123     1.76    146     0.6  0.04   0.6   0.072   0.000   69.7    54   52.3   68.4   9.96  .0745    0.000   204    7    100.0   10 
10/24/20 10:20a   54.2   54.5   54.2    85   49.8   4.0    NE   0.67   9.0   NNE   53.7   54.1   53.6   57.6  30.146  0.00  0.00   169     2.42    193     0.8  0.06   0.9   0.075   0.000   69.8    54   52.4   68.5   9.96  .0745    0.000   203    7    100.0   10 
10/24/20 10:30a   54.5   54.5   54.2    85   50.1   4.0   NNE   0.67   8.0     N   54.1   54.4   54.0   58.4  30.144  0.00  0.00   183     2.62    195     1.0  0.07   1.1   0.073   0.000   69.8    53   51.9   68.4   9.85  .0745    0.000   204    7    100.0   10 
10/24/20 10:40a   54.6   54.7   54.5    85   50.2   3.0    NE   0.50   5.0    NE   54.6   54.5   54.5   58.2  30.145  0.00  0.00   165     2.37    206     1.2  0.09   1.3   0.072   0.000   69.9    53   52.0   68.5   9.85  .0745    0.000   203    7    100.0   10 
10/24/20 10:50a   55.3   55.3   54.6    85   50.9   4.0   NNE   0.67   8.0   ENE   55.0   55.2   54.9   63.8  30.150  0.00  0.00   373     5.35    420     1.7  0.12   1.9   0.067   0.000   69.9    53   52.0   68.5   9.85  .0745    0.000   204    7    100.0   10 
10/24/20 11:00a   56.0   56.0   55.3    83   50.9   4.0    NE   0.67   9.0   NNE   55.8   55.8   55.6   65.1  30.149  0.00  0.00   416     5.96    452     1.8  0.13   1.9   0.063   0.000   69.9    53   52.0   68.5   9.85  .0745    0.005   202    7    100.0   10 
10/24/20 11:10a   55.4   56.0   55.4    82   50.0   5.0    NE   0.83   8.0   NNE   54.6   55.2   54.4   55.0  30.150  0.00  0.00    81     1.16     91     1.7  0.12   2.1   0.067   0.000   69.9    53   52.0   68.5   9.85  .0745    0.000   203    7    100.0   10 
10/24/20 11:20a   55.8   55.8   55.4    82   50.4   6.0   NNE   1.00  10.0   NNE   54.6   55.6   54.4   62.9  30.152  0.00  0.00   373     5.35    476     2.2  0.16   2.3   0.064   0.000   70.0    53   52.1   68.5   9.85  .0745    0.000   204    7    100.0   10 
10/24/20 11:30a   56.3   56.3   55.8    80   50.2   7.0   NNE   1.17  12.0   NNE   54.8   56.0   54.5   64.4  30.155  0.00  0.00   503     7.21    520     2.4  0.17   2.5   0.060   0.000   70.0    53   52.1   68.5   9.85  .0745    0.000   204    7    100.0   10 
10/24/20 11:40a   56.5   56.7   56.3    79   50.1   7.0   NNE   1.17  10.0   NNE   55.0   56.2   54.7   64.3  30.159  0.00  0.00   465     6.67    550     2.4  0.17   2.6   0.059   0.000   70.1    53   52.2   68.7   9.85  .0745    0.000   204    7    100.0   10 
10/24/20 11:50a   56.3   56.5   56.1    80   50.2   7.0    NE   1.17  11.0   NNE   54.8   56.0   54.5   63.6  30.159  0.00  0.00   434     6.22    541     2.6  0.19   2.7   0.060   0.000   70.2    53   52.3   68.8   9.84  .0745    0.000   203    7    100.0   10 
10/24/20 12:00p   56.9   56.9   56.2    79   50.5   7.0   NNE   1.17  11.0    NE   55.5   56.6   55.2   65.3  30.157  0.00  0.00   526     7.54    552     2.7  0.19   2.8   0.056   0.000   70.3    53   52.4   68.9   9.84  .0745    0.009   203    7    100.0   10 
10/24/20 12:10p   57.2   57.2   56.9    77   50.1   6.0   NNE   1.00  10.0   NNE   56.2   56.8   55.8   66.1  30.156  0.00  0.00   531     7.61    538     2.8  0.20   2.9   0.054   0.000   70.4    54   53.0   69.1   9.94  .0744    0.000   204    7    100.0   10 
10/24/20 12:20p   57.6   57.7   57.2    76   50.1   5.0   NNE   0.83   9.0   NNE   57.1   57.2   56.7   66.9  30.154  0.00  0.00   526     7.54    547     2.9  0.21   2.9   0.051   0.000   70.5    53   52.5   69.2   9.83  .0744    0.000   201    7    100.0   10 
10/24/20 12:30p   57.8   57.9   57.6    76   50.3   5.0    NE   0.83   9.0    NE   57.4   57.4   57.0   67.2  30.152  0.00  0.00   530     7.60    536     3.0  0.21   3.0   0.050   0.000   70.5    53   52.5   69.2   9.83  .0744    0.000   201    7    100.0   10 
10/24/20 12:40p   58.2   58.2   57.8    75   50.3   4.0    NE   0.67   7.0   NNE   58.2   57.7   57.7   67.9  30.149  0.00  0.00   533     7.64    541     3.0  0.21   3.1   0.047   0.000   70.6    53   52.6   69.3   9.83  .0744    0.000   202    7    100.0   10 
10/24/20 12:50p   58.2   58.4   58.2    74   50.0   4.0    NE   0.67   7.0   NNE   58.2   57.6   57.6   67.8  30.147  0.00  0.00   541     7.76    545     3.1  0.22   3.1   0.047   0.000   70.7    53   52.7   69.4   9.82  .0744    0.000   202    7    100.0   10 
10/24/20  1:00p   58.6   58.6   58.1    75   50.7   3.0    NE   0.50   6.0   NNE   58.6   58.1   58.1   68.4  30.147  0.00  0.00   544     7.80    548     3.1  0.22   3.1   0.044   0.000   70.7    53   52.7   69.4   9.82  .0744    0.012   202    7    100.0   10 
10/24/20  1:10p   58.5   58.7   58.4    73   49.9   3.0     N   0.50   5.0    NE   58.5   57.9   57.9   68.1  30.144  0.00  0.00   545     7.81    548     3.1  0.22   3.1   0.045   0.000   70.8    53   52.8   69.6   9.82  .0744    0.000   203    7    100.0   10 
10/24/20  1:20p   58.4   58.6   58.4    73   49.8   2.0   NNE   0.33   4.0   NNE   58.4   57.8   57.8   68.0  30.142  0.00  0.00   545     7.81    548     3.1  0.22   3.1   0.046   0.000   70.9    53   52.9   69.7   9.81  .0743    0.000   201    7    100.0   10 
10/24/20  1:30p   56.5   58.4   56.5    75   48.7   3.0    NW   0.50   4.0   NNW   56.5   56.0   56.0   66.2  30.143  0.00  0.00   548     7.86    550     3.1  0.22   3.1   0.059   0.000   70.9    53   52.9   69.7   9.81  .0743    0.000   203    7    100.0   10 
10/24/20  1:40p   57.1   57.1   56.5    75   49.2   3.0   NNW   0.50   4.0    NW   57.1   56.6   56.6   66.8  30.143  0.00  0.00   545     7.81    547     3.0  0.21   3.0   0.055   0.000   71.0    53   53.0   69.8   9.81  .0743    0.000   203    7    100.0   10 
10/24/20  1:50p   58.1   58.1   57.0    73   49.5   3.0     N   0.50   5.0   NNE   58.1   57.5   57.5   67.7  30.140  0.00  0.00   539     7.73    541     2.9  0.21   3.0   0.048   0.000   71.1    53   53.1   70.0   9.81  .0743    0.000   203    7    100.0   10 
10/24/20  2:00p   57.8   58.6   57.8    72   48.8   3.0   NNW   0.50   4.0     N   57.8   57.1   57.1   67.2  30.139  0.00  0.00   530     7.60    533     2.8  0.20   2.9   0.050   0.000   71.2    53   53.2   70.1   9.80  .0743    0.011   204    7    100.0   10 
10/24/20  2:10p   57.0   57.8   57.0    73   48.4   2.0    NW   0.33   4.0     N   57.0   56.4   56.4   66.4  30.138  0.00  0.00   524     7.51    529     2.7  0.19   2.8   0.056   0.000   71.2    53   53.2   70.1   9.80  .0743    0.000   204    7    100.0   10 
10/24/20  2:20p   57.8   57.8   56.9    74   49.6   2.0    NW   0.33   4.0   NNE   57.8   57.2   57.2   67.2  30.135  0.00  0.00   516     7.40    520     2.6  0.19   2.7   0.050   0.000   71.3    53   53.3   70.3   9.80  .0743    0.000   205    7    100.0   10 
10/24/20  2:30p   56.4   58.1   56.4    72   47.5   2.0    NW   0.33   4.0    NW   56.4   55.7   55.7   65.6  30.137  0.00  0.00   509     7.30    522     2.5  0.18   2.6   0.060   0.000   71.4    53   53.4   70.4   9.79  .0742    0.000   202    7    100.0   10 
10/24/20  2:40p   55.9   56.4   55.8    73   47.4   3.0    NW   0.50   4.0    NW   55.9   55.2   55.2   65.1  30.135  0.00  0.00   501     7.18    503     2.4  0.17   2.4   0.063   0.000   71.4    53   53.4   70.4   9.79  .0742    0.000   204    7    100.0   10 
10/24/20  2:50p   56.0   56.0   55.9    73   47.5   3.0    NW   0.50   4.0    NW   56.0   55.3   55.3   65.1  30.133  0.00  0.00   489     7.01    497     2.2  0.16   2.3   0.063   0.000   71.6    53   53.6   70.7   9.79  .0742    0.000   204    7    100.0   10 
10/24/20  3:00p   55.8   56.0   55.8    75   48.0   3.0    NW   0.50   5.0    NW   55.8   55.2   55.2   64.9  30.132  0.00  0.00   475     6.81    480     2.1  0.15   2.1   0.064   0.000   71.7    53   53.7   70.9   9.78  .0742    0.010   203    7    100.0   10 
10/24/20  3:10p   55.6   55.8   55.6    74   47.4   4.0     W   0.67   6.0     W   55.3   55.0   54.7   64.2  30.130  0.00  0.00   456     6.54    464     1.9  0.14   2.0   0.065   0.000   71.7    53   53.7   70.9   9.78  .0742    0.000   202    7    100.0   10 
10/24/20  3:20p   55.6   55.7   55.4    74   47.4   4.0     W   0.67   6.0     W   55.3   55.0   54.7   64.0  30.131  0.00  0.00   436     6.25    445     1.7  0.12   1.8   0.065   0.000   71.8    53   53.7   71.0   9.78  .0742    0.000   202    7    100.0   10 
10/24/20  3:30p   55.6   55.7   55.5    75   47.8   4.0     W   0.67   6.0     W   55.3   55.0   54.7   63.8  30.129  0.00  0.00   415     5.95    425     1.6  0.11   1.6   0.065   0.000   71.9    53   53.8   71.2   9.77  .0741    0.000   205    7    100.0   10 
10/24/20  3:40p   55.7   55.7   55.5    75   47.9   5.0     W   0.83   6.0     W   54.9   55.1   54.3   63.2  30.126  0.00  0.00   395     5.66    404     1.4  0.10   1.5   0.065   0.000   72.0    53   53.9   71.3   9.77  .0741    0.000   204    7    100.0   10 
10/24/20  3:50p   55.7   55.7   55.5    75   47.9   4.0     W   0.67   6.0     W   55.4   55.1   54.8   63.4  30.130  0.00  0.00   374     5.36    385     1.3  0.09   1.3   0.065   0.000   72.0    53   53.9   71.3   9.77  .0741    0.000   203    7    100.0   10 
10/24/20  4:00p   55.8   55.8   55.6    75   48.0   4.0     W   0.67   7.0     W   55.6   55.2   55.0   63.3  30.131  0.00  0.00   352     5.05    362     1.1  0.08   1.2   0.064   0.000   72.1    53   54.0   71.5   9.77  .0741    0.009   203    7    100.0   10 
10/24/20  4:10p   56.0   56.1   55.8    75   48.2   4.0   WNW   0.67   6.0     W   55.8   55.4   55.2   63.3  30.131  0.00  0.00   329     4.72    339     1.0  0.07   1.0   0.063   0.000   72.2    53   54.1   71.6   9.76  .0741    0.000   201    7    100.0   10 
10/24/20  4:20p   57.0   57.0   56.0    75   49.2   3.0    NW   0.50   5.0   WNW   57.0   56.5   56.5   64.2  30.136  0.00  0.00   305     4.37    318     0.8  0.06   0.9   0.056   0.000   72.2    53   54.1   71.6   9.76  .0741    0.000   204    7    100.0   10 
10/24/20  4:30p   57.8   57.8   57.0    75   49.9   3.0   WNW   0.50   4.0    NW   57.8   57.3   57.3   64.5  30.138  0.00  0.00   279     4.00    292     0.7  0.05   0.8   0.050   0.000   72.3    53   54.2   71.8   9.76  .0741    0.000   202    7    100.0   10 
10/24/20  4:40p   58.3   58.3   57.6    72   49.3   3.0     N   0.50   6.0     N   58.3   57.6   57.6   64.4  30.137  0.00  0.00   255     3.66    265     0.6  0.04   0.6   0.047   0.000   72.3    53   54.2   71.8   9.76  .0741    0.000   200    7    100.0   10 
10/24/20  4:50p   58.0   58.3   58.0    72   49.0   5.0     N   0.83   8.0     N   57.6   57.3   56.9   62.9  30.140  0.00  0.00   223     3.20    239     0.3  0.02   0.5   0.049   0.000   72.4    53   54.3   71.9   9.75  .0741    0.000   203    7    100.0   10 
10/24/20  5:00p   58.5   58.5   57.8    71   49.1   5.0    NE   0.83   9.0   NNE   58.2   57.8   57.5   63.0  30.142  0.00  0.00   199     2.85    213     0.0  0.00   0.0   0.045   0.000   72.5    53   54.4   72.1   9.75  .0741    0.006   203    7    100.0   10 
10/24/20  5:10p   58.7   58.9   58.5    70   48.9   7.0   NNE   1.17  10.0   NNE   57.6   58.0   56.9   61.4  30.142  0.00  0.00   170     2.44    181     0.0  0.00   0.0   0.044   0.000   72.5    54   54.9   72.2   9.90  .0740    0.000   203    7    100.0   10 
10/24/20  5:20p   58.6   58.8   58.6    71   49.2   7.0   NNE   1.17  11.0   NNE   57.5   57.9   56.8   60.6  30.140  0.00  0.00   147     2.11    158     0.0  0.00   0.0   0.044   0.000   72.6    54   55.0   72.3   9.90  .0740    0.000   203    7    100.0   10 
10/24/20  5:30p   58.3   58.6   58.2    73   49.7   5.0   ENE   0.83  10.0    NE   58.0   57.7   57.4   60.9  30.140  0.00  0.00   133     1.91    139     0.0  0.00   0.0   0.047   0.000   72.6    54   55.0   72.3   9.90  .0740    0.000   202    7    100.0   10 
10/24/20  5:40p   57.2   58.3   57.2    72   48.3   7.0    NE   1.17  13.0   NNE   55.8   56.5   55.1   57.1  30.139  0.00  0.00    93     1.33    118     0.0  0.00   0.0   0.054   0.000   72.6    54   55.0   72.3   9.90  .0740    0.000   203    7    100.0   10 
10/24/20  5:50p   55.8   57.1   55.8    74   47.6   8.0    NE   1.33  16.0   NNE   53.5   55.2   52.9   53.2  30.142  0.00  0.00    50     0.72     67     0.0  0.00   0.0   0.064   0.000   72.6    54   55.0   72.3   9.90  .0740    0.000   204    7    100.0   10 
10/24/20  6:00p   54.8   55.7   54.7    76   47.4   8.0   ENE   1.33  15.0   ENE   52.3   54.3   51.8   51.0  30.143  0.00  0.00    26     0.37     32     0.0  0.00   0.0   0.071   0.000   72.6    54   55.0   72.3   9.90  .0740    0.004   202    7    100.0   10 
10/24/20  6:10p   54.2   54.7   54.2    77   47.1   4.0   ENE   0.67   9.0   ENE   53.7   53.8   53.3   51.0  30.143  0.00  0.00    14     0.20     19     0.0  0.00   0.0   0.075   0.000   72.6    54   55.0   72.3   9.90  .0740    0.000   202    7    100.0   10 
10/24/20  6:20p   53.5   54.1   53.5    78   46.8   3.0   ENE   0.50   9.0    NE   53.5   53.1   53.1   50.6  30.142  0.00  0.00     7     0.10      9     0.0  0.00   0.0   0.080   0.000   72.6    53   54.5   72.2   9.75  .0740    0.000   204    7    100.0   10 
10/24/20  6:30p   53.0   53.5   53.0    78   46.3   3.0   ENE   0.50   5.0   ENE   53.0   52.6   52.6   49.9  30.144  0.00  0.00     0     0.00      0     0.0  0.00   0.0   0.083   0.000   72.6    53   54.5   72.2   9.75  .0740    0.000   201    7    100.0   10 
10/24/20  6:40p   52.7   53.0   52.6    79   46.4   2.0   ENE   0.33   4.0   ENE   52.7   52.4   52.4   49.7  30.147  0.00  0.00     0     0.00      0     0.0  0.00   0.0   0.085   0.000   72.5    53   54.4   72.1   9.75  .0741    0.000   205    7    100.0   10 
10/24/20  6:50p   52.3   52.7   52.3    79   46.0   2.0   ENE   0.33   5.0   ENE   52.3   52.0   52.0   49.3  30.148  0.00  0.00     0     0.00      0     0.0  0.00   0.0   0.088   0.000   72.5    53   54.4   72.1   9.75  .0741    0.000   203    7    100.0   10 
10/24/20  7:00p   52.2   52.3   52.2    79   45.9   3.0     E   0.50   7.0   ENE   52.1   51.9   51.8   49.1  30.148  0.00  0.00     0     0.00      0     0.0  0.00   0.0   0.089   0.000   72.5    53   54.4   72.1   9.75  .0741    0.001   202    7    100.0   10 
10/24/20  7:10p   52.1   52.2   52.1    80   46.1   3.0     E   0.50   7.0     E   52.0   51.9   51.8   49.1  30.150  0.00  0.00     0     0.00      0     0.0  0.00   0.0   0.090   0.000   72.5    53   54.4   72.1   9.75  .0741    0.000   202    7    100.0   10 
10/24/20  7:20p   51.9   52.1   51.9    80   45.9   3.0     E   0.50   8.0   ENE   51.8   51.7   51.6   48.9  30.152  0.00  0.00     0     0.00      0     0.0  0.00   0.0   0.091   0.000   72.4    53   54.3   71.9   9.75  .0741    0.000   202    7    100.0   10 
10/24/20  7:30p   51.4   51.9   51.4    80   45.4   4.0     E   0.67   8.0   ENE   50.5   51.3   50.4   47.7  30.149  0.00  0.00     0     0.00      0     0.0  0.00   0.0   0.094   0.000   72.3    53   54.2   71.8   9.76  .0741    0.000   202    7    100.0   10 
10/24/20  7:40p   51.1   51.4   51.1    80   45.1   4.0     E   0.67   7.0    SE   50.1   51.0   50.0   47.3  30.148  0.00  0.00     0     0.00      0     0.0  0.00   0.0   0.097   0.000   72.3    53   54.2   71.8   9.76  .0741    0.000   203    7    100.0   10 
10/24/20  7:50p   50.9   51.1   50.8    82   45.6   5.0     E   0.83   9.0   ESE   49.3   50.9   49.3   46.6  30.152  0.00  0.00     0     0.00      0     0.0  0.00   0.0   0.098   0.000   72.3    53   54.2   71.8   9.76  .0741    0.000   203    7    100.0   10 
10/24/20  8:00p   50.5   50.9   50.5    83   45.5   6.0     E   1.00  12.0     E   48.3   50.5   48.3   45.6  30.152  0.00  0.00     0     0.00      0     0.0  0.00   0.0   0.101   0.000   72.2    53   54.1   71.6   9.76  .0741    0.001   205    7    100.0   10 
10/24/20  8:10p   50.1   50.5   50.1    84   45.5   6.0     E   1.00   9.0     E   47.8   50.2   47.9   45.2  30.155  0.00  0.00     0     0.00      0     0.0  0.00   0.0   0.103   0.000   72.1    53   54.0   71.5   9.77  .0742    0.000   203    7    100.0   10 
10/24/20  8:20p   49.7   50.1   49.7    85   45.4   5.0     E   0.83   9.0     E   47.8   49.8   47.9   45.2  30.160  0.00  0.00     0     0.00      0     0.0  0.00   0.0   0.106   0.000   72.1    53   54.0   71.5   9.77  .0742    0.000   202    7    100.0   10 
10/24/20  8:30p   49.4   49.7   49.4    84   44.8   4.0     E   0.67   9.0     E   48.2   49.5   48.3   45.6  30.165  0.00  0.00     0     0.00      0     0.0  0.00   0.0   0.108   0.000   72.0    53   53.9   71.3   9.77  .0742    0.000   202    7    100.0   10 
10/24/20  8:40p   49.1   49.4   49.0    83   44.2   4.0     E   0.67   7.0     E   47.8   49.1   47.8   45.1  30.162  0.00  0.00     0     0.00      0     0.0  0.00   0.0   0.110   0.000   72.0    53   53.9   71.3   9.77  .0742    0.000   205    7    100.0   10 
10/24/20  8:50p   48.7   49.0   48.7    83   43.8   4.0     E   0.67   7.0     E   47.4   48.7   47.4   44.6  30.163  0.00  0.00     0     0.00      0     0.0  0.00   0.0   0.113   0.000   71.9    53   53.8   71.2   9.77  .0742    0.000   202    7    100.0   10 
10/24/20  9:00p   48.6   48.7   48.5    82   43.4   4.0     E   0.67   8.0     E   47.3   48.6   47.3   44.5  30.165  0.00  0.00     0     0.00      0     0.0  0.00   0.0   0.114   0.000   71.8    53   53.7   71.0   9.78  .0742    0.001   202    7    100.0   10 
10/24/20  9:10p   48.5   48.6   48.5    82   43.3   3.0   ESE   0.50   8.0   ESE   48.0   48.5   48.0   45.2  30.170  0.00  0.00     0     0.00      0     0.0  0.00   0.0   0.115   0.000   71.8    53   53.7   71.0   9.78  .0743    0.000   202    7    100.0   10 
10/24/20  9:20p   48.4   48.5   48.3    80   42.5   3.0   ESE   0.50   7.0   ESE   47.8   48.3   47.7   44.9  30.170  0.00  0.00     0     0.00      0     0.0  0.00   0.0   0.115   0.000   71.7    53   53.7   70.9   9.78  .0743    0.000   205    7    100.0   10 
10/24/20  9:30p   48.2   48.3   48.2    80   42.3   5.0   ESE   0.83   8.0   ESE   46.1   48.1   46.0   43.2  30.170  0.00  0.00     0     0.00      0     0.0  0.00   0.0   0.117   0.000   71.7    53   53.7   70.9   9.78  .0743    0.000   204    7    100.0   10 
10/24/20  9:40p   48.1   48.3   48.1    79   41.9   5.0   ESE   0.83  10.0    SE   46.0   48.0   45.9   43.1  30.171  0.00  0.00     0     0.00      0     0.0  0.00   0.0   0.117   0.000   71.6    53   53.6   70.7   9.79  .0743    0.000   203    7    100.0   10 
10/24/20  9:50p   48.0   48.1   48.0    79   41.8   3.0     E   0.50   8.0     E   47.4   47.9   47.3   44.5  30.173  0.00  0.00     0     0.00      0     0.0  0.00   0.0   0.118   0.000   71.6    53   53.6   70.7   9.79  .0743    0.000   203    7    100.0   10 
10/24/20 10:00p   47.8   48.0   47.8    79   41.6   2.0     S   0.33   9.0   SSE   47.8   47.6   47.6   44.8  30.175  0.00  0.00     0     0.00      0     0.0  0.00   0.0   0.119   0.000   71.5    53   53.5   70.6   9.79  .0743    0.001   203    7    100.0   10 
10/24/20 10:10p   47.9   47.9   47.7    78   41.4   3.0   ESE   0.50  10.0     E   47.3   47.7   47.1   44.3  30.176  0.00  0.00     0     0.00      0     0.0  0.00   0.0   0.119   0.000   71.4    53   53.4   70.4   9.79  .0743    0.000   203    7    100.0   10 
10/24/20 10:20p   48.3   48.4   47.8    77   41.4   3.0    SW   0.50  14.0   ESE   47.7   48.1   47.5   44.7  30.178  0.00  0.00     0     0.00      0     0.0  0.00   0.0   0.116   0.000   71.4    53   53.4   70.4   9.79  .0743    0.000   203    7    100.0   10 
10/24/20 10:30p   48.1   48.3   48.1    77   41.2   2.0    SE   0.33   7.0     S   48.1   47.9   47.9   45.1  30.182  0.00  0.00     0     0.00      0     0.0  0.00   0.0   0.117   0.000   71.3    53   53.3   70.3   9.80  .0744    0.000   205    7    100.0   10 
10/24/20 10:40p   47.8   48.1   47.8    77   40.9   3.0   SSE   0.50   9.0    SE   47.2   47.6   47.0   44.1  30.183  0.00  0.00     0     0.00      0     0.0  0.00   0.0   0.119   0.000   71.2    53   53.2   70.1   9.80  .0744    0.000   203    7    100.0   10 
10/24/20 10:50p   47.5   47.8   47.5    77   40.6   4.0    NE   0.67  11.0     E   46.0   47.3   45.8   42.9  30.183  0.00  0.00     0     0.00      0     0.0  0.00   0.0   0.122   0.000   71.2    53   53.2   70.1   9.80  .0744    0.000   203    7    100.0   10 
10/24/20 11:00p   47.2   47.6   47.1    77   40.4   6.0   ENE   1.00  14.0    NE   44.3   46.9   44.0   41.1  30.186  0.00  0.00     0     0.00      0     0.0  0.00   0.0   0.124   0.000   71.1    53   53.1   70.0   9.81  .0744    0.001   202    7    100.0   10 
10/24/20 11:10p   46.8   47.2   46.8    78   40.3   7.0     E   1.17  12.0   ENE   43.4   46.6   43.2   40.3  30.191  0.00  0.00     0     0.00      0     0.0  0.00   0.0   0.126   0.000   71.1    53   53.1   70.0   9.81  .0744    0.000   203    7    100.0   10 
10/24/20 11:20p   46.3   46.8   46.3    79   40.1   4.0     E   0.67  10.0    SE   44.6   46.1   44.4   41.5  30.195  0.00  0.00     0     0.00      0     0.0  0.00   0.0   0.130   0.000   71.0    53   53.0   69.8   9.81  .0745    0.000   202    7    100.0   10 
10/24/20 11:30p   46.1   46.3   46.1    79   39.9   4.0     E   0.67   8.0   ESE   44.3   45.9   44.1   41.2  30.194  0.00  0.00     0     0.00      0     0.0  0.00   0.0   0.131   0.000   70.9    53   52.9   69.7   9.81  .0745    0.000   204    7    100.0   10 
10/24/20 11:40p   46.0   46.2   45.9    79   39.9   3.0   ESE   0.50  10.0   ESE   45.2   45.8   45.0   42.1  30.194  0.00  0.00     0     0.00      0     0.0  0.00   0.0   0.132   0.000   70.9    53   52.9   69.7   9.81  .0745    0.000   202    7    100.0   10 
10/24/20 11:50p   45.8   46.0   45.8    79   39.7   1.0   SSE   0.17   5.0   SSE   45.8   45.6   45.6   42.7  30.195  0.00  0.00     0     0.00      0     0.0  0.00   0.0   0.133   0.000   70.8    53   52.8   69.6   9.82  .0745    0.000   204    7    100.0   10 
10/25/20 12:00a   45.5   45.8   45.5    80   39.7   2.0   SSE   0.33   8.0   ESE   45.5   45.3   45.3   42.4  30.192  0.00  0.00     0     0.00      0     0.0  0.00   0.0   0.135   0.000   70.8    53   52.8   69.6   9.82  .0745    0.001   203    7    100.0   10 
10/25/20 12:10a   45.6   45.6   45.4    80   39.8   3.0    SE   0.50   8.0   NNE   44.7   45.4   44.5   41.6  30.196  0.00  0.00     0     0.00      0     0.0  0.00   0.0   0.135   0.000   70.7    53   52.7   69.4   9.82  .0745    0.000   201    7    100.0   10 
10/25/20 12:20a   45.8   45.8   45.6    79   39.7   1.0   ESE   0.17   4.0   NNW   45.8   45.6   45.6   42.7  30.198  0.00  0.00     0     0.00      0     0.0  0.00   0.0   0.133   0.000   70.6    53   52.6   69.3   9.83  .0745    0.000   204    7    100.0   10 
10/25/20 12:30a   45.7   45.8   45.5    79   39.6   2.0     E   0.33   6.0   NNE   45.7   45.5   45.5   42.6  30.194  0.00  0.00     0     0.00      0     0.0  0.00   0.0   0.134   0.000   70.5    52   52.0   69.1   9.64  .0746    0.000   203    7    100.0   10 
10/25/20 12:40a   45.3   45.8   45.3    77   38.5   3.0   ENE   0.50   9.0   NNE   44.4   45.0   44.1   41.2  30.196  0.00  0.00     0     0.00      0     0.0  0.00   0.0   0.137   0.000   70.5    52   52.0   69.1   9.64  .0746    0.000   202    7    100.0   10 
10/25/20 12:50a   45.4   45.5   45.3    76   38.3   3.0     E   0.50  10.0   ENE   44.5   45.0   44.1   41.2  30.198  0.00  0.00     0     0.00      0     0.0  0.00   0.0   0.136   0.000   70.4    52   51.9   69.0   9.64  .0746    0.000   203    7    100.0   10 
10/25/20  1:00a   45.4   45.8   45.4    75   37.9   4.0     E   0.67  10.0     E   43.5   45.0   43.1   40.1  30.199  0.00  0.00     0     0.00      0     0.0  0.00   0.0   0.136   0.000   70.3    52   51.8   68.9   9.64  .0746    0.001   203    7    100.0   10 
10/25/20  1:10a   45.6   45.6   45.2    74   37.8   4.0    NE   0.67  12.0   NNE   43.8   45.2   43.4   40.4  30.205  0.00  0.00     0     0.00      0     0.0  0.00   0.0   0.135   0.000   70.3    52   51.8   68.9   9.64  .0746    0.000   202    7    100.0   10 
10/25/20  1:20a   45.3   45.6   45.3    75   37.8   4.0    NE   0.67  11.0   WNW   43.4   44.9   43.0   40.0  30.205  0.00  0.00     0     0.00      0     0.0  0.00   0.0   0.137   0.000   70.2    52   51.7   68.7   9.65  .0746    0.000   202    7    100.0   10 
10/25/20  1:30a   45.1   45.3   45.1    75   37.6   4.0   ENE   0.67  13.0    NE   43.2   44.7   42.8   39.8  30.208  0.00  0.00     0     0.00      0     0.0  0.00   0.0   0.138   0.000   70.1    52   51.7   68.6   9.65  .0747    0.000   203    7    100.0   10 
10/25/20  1:40a   45.1   45.1   45.0    74   37.3   3.0     E   0.50  11.0   NNE   44.1   44.7   43.7   40.7  30.211  0.00  0.00     0     0.00      0     0.0  0.00   0.0   0.138   0.000   70.1    52   51.7   68.6   9.65  .0747    0.000   204    7    100.0   10 
10/25/20  1:50a   45.1   45.3   45.1    74   37.3   6.0    NE   1.00  16.0    NE   41.8   44.7   41.4   38.4  30.214  0.00  0.00     0     0.00      0     0.0  0.00   0.0   0.138   0.000   70.0    52   51.6   68.5   9.65  .0747    0.000   203    7    100.0   10 
10/25/20  2:00a   44.6   45.1   44.6    73   36.5   3.0   WSW   0.50  16.0   NNE   43.6   44.2   43.2   40.2  30.219  0.00  0.00     0     0.00      0     0.0  0.00   0.0   0.142   0.000   70.0    52   51.6   68.5   9.65  .0747    0.001   203    7    100.0   10 
10/25/20  2:10a   44.5   44.8   44.5    71   35.7   4.0    NE   0.67  10.0     N   42.5   44.0   42.0   39.0  30.224  0.00  0.00     0     0.00      0     0.0  0.00   0.0   0.142   0.000   69.9    52   51.5   68.4   9.65  .0747    0.000   203    7    100.0   10 
10/25/20  2:20a   44.3   44.5   44.2    71   35.5   7.0    NE   1.17  17.0   NNE   40.4   43.8   39.9   36.9  30.222  0.00  0.00     0     0.00      0     0.0  0.00   0.0   0.144   0.000   69.8    52   51.4   68.3   9.65  .0748    0.000   203    7    100.0   10 
10/25/20  2:30a   44.3   44.4   44.2    70   35.1   6.0   ENE   1.00  15.0    NE   40.9   43.8   40.4   37.4  30.226  0.00  0.00     0     0.00      0     0.0  0.00   0.0   0.144   0.000   69.7    52   51.3   68.3   9.66  .0748    0.000   202    7    100.0   10 
10/25/20  2:40a   43.9   44.3   43.9    70   34.7   6.0   ENE   1.00  15.0   NNE   40.4   43.4   39.9   36.8  30.232  0.00  0.00     0     0.00      0     0.0  0.00   0.0   0.147   0.000   69.6    52   51.2   68.2   9.66  .0748    0.000   204    7    100.0   10 
10/25/20  2:50a   43.7   43.9   43.6    69   34.2   6.0    NE   1.00  12.0   NNW   40.1   43.1   39.5   36.4  30.232  0.00  0.00     0     0.00      0     0.0  0.00   0.0   0.148   0.000   69.6    52   51.2   68.2   9.66  .0748    0.000   201    7    100.0   10 
10/25/20  3:00a   43.1   43.7   43.1    70   34.0   6.0   ENE   1.00  17.0    NE   39.4   42.5   38.8   35.7  30.234  0.00  0.00     0     0.00      0     0.0  0.00   0.0   0.152   0.000   69.5    52   51.1   68.1   9.66  .0748    0.001   204    7    100.0   10 
10/25/20  3:10a   43.1   43.1   43.0    69   33.6   9.0    NE   1.50  20.0    NE   37.7   42.5   37.1   34.3  30.240  0.00  0.00     0     0.00      0     0.0  0.00   0.0   0.152   0.000   69.4    52   51.0   68.0   9.66  .0749    0.000   203    7    100.0   10 
10/25/20  3:20a   42.9   43.1   42.9    68   33.1   9.0   ENE   1.50  20.0    NE   37.5   42.3   36.9   34.1  30.250  0.00  0.00     0     0.00      0     0.0  0.00   0.0   0.153   0.000   69.4    52   51.0   68.0   9.66  .0749    0.000   201    7    100.0   10 
10/25/20  3:30a   42.4   42.9   42.4    69   32.9   4.0   ENE   0.67  11.0    NE   40.1   41.8   39.5   36.4  30.250  0.00  0.00     0     0.00      0     0.0  0.00   0.0   0.157   0.000   69.3    52   50.9   68.0   9.66  .0749    0.000   203    7    100.0   10 
10/25/20  3:40a   41.6   42.4   41.5    71   32.9   3.0   ENE   0.50   6.0   ENE   40.2   41.0   39.6   36.5  30.254  0.00  0.00     0     0.00      0     0.0  0.00   0.0   0.163   0.000   69.2    52   50.8   67.9   9.67  .0749    0.000   201    7    100.0   10 
10/25/20  3:50a   40.9   41.6   40.9    71   32.2   4.0   ENE   0.67   9.0   ENE   38.4   40.3   37.8   34.7  30.258  0.00  0.00     0     0.00      0     0.0  0.00   0.0   0.167   0.000   69.1    52   50.7   67.8   9.67  .0750    0.000   202    7    100.0   10 
10/25/20  4:00a   40.3   40.9   40.3    71   31.6   4.0   ENE   0.67   8.0   ENE   37.7   39.7   37.1   33.9  30.259  0.00  0.00     0     0.00      0     0.0  0.00   0.0   0.172   0.000   69.0    52   50.6   67.8   9.67  .0750    0.001   201    7    100.0   10 
10/25/20  4:10a   39.9   40.4   39.9    72   31.6   3.0   ENE   0.50   7.0   ENE   38.3   39.3   37.7   34.5  30.262  0.00  0.00     0     0.00      0     0.0  0.00   0.0   0.174   0.000   68.9    52   50.5   67.7   9.67  .0750    0.000   204    7    100.0   10 
10/25/20  4:20a   39.4   39.8   39.4    73   31.5   5.0   ENE   0.83   9.0    NE   35.8   38.9   35.3   32.1  30.263  0.00  0.00     0     0.00      0     0.0  0.00   0.0   0.178   0.000   68.8    52   50.5   67.6   9.67  .0750    0.000   203    7    100.0   10 
10/25/20  4:30a   39.0   39.4   39.0    73   31.1   4.0   ENE   0.67   8.0   NNE   36.2   38.5   35.7   32.5  30.265  0.00  0.00     0     0.00      0     0.0  0.00   0.0   0.181   0.000   68.8    52   50.5   67.6   9.67  .0750    0.000   204    7    100.0   10 
10/25/20  4:40a   38.8   39.1   38.8    73   30.9   5.0   ENE   0.83   8.0    NE   35.1   38.3   34.6   31.4  30.266  0.00  0.00     0     0.00      0     0.0  0.00   0.0   0.182   0.000   68.7    52   50.4   67.5   9.68  .0751    0.000   203    7    100.0   10 
10/25/20  4:50a   38.7   38.9   38.7    73   30.8   5.0   ENE   0.83   9.0    NE   34.9   38.2   34.4   31.2  30.263  0.00  0.00     0     0.00      0     0.0  0.00   0.0   0.183   0.000   68.6    52   50.3   67.4   9.68  .0751    0.000   204    7    100.0   10 
10/25/20  5:00a   38.5   38.7   38.5    72   30.3   5.0   ENE   0.83   9.0   NNE   34.7   38.0   34.2   31.0  30.263  0.00  0.00     0     0.00      0     0.0  0.00   0.0   0.184   0.000   68.5    51   49.7   67.2   9.48  .0751    0.001   200    7    100.0   10 
10/25/20  5:10a   38.4   38.5   38.4    72   30.2   5.0   ENE   0.83   8.0     E   34.6   37.9   34.1   30.9  30.263  0.00  0.00     0     0.00      0     0.0  0.00   0.0   0.185   0.000   68.4    51   49.6   67.2   9.48  .0751    0.000   200    7    100.0   10 
10/25/20  5:20a   38.0   38.4   38.0    72   29.8   5.0   ENE   0.83   9.0    NE   34.1   37.5   33.6   30.4  30.265  0.00  0.00     0     0.00      0     0.0  0.00   0.0   0.188   0.000   68.3    51   49.5   67.1   9.48  .0751    0.000   204    7    100.0   10 
10/25/20  5:30a   37.8   38.0   37.8    72   29.6   6.0   ENE   1.00   9.0     E   33.1   37.3   32.6   29.4  30.271  0.00  0.00     0     0.00      0     0.0  0.00   0.0   0.189   0.000   68.2    51   49.4   67.0   9.49  .0752    0.000   204    7    100.0   10 
10/25/20  5:40a   37.5   37.8   37.5    72   29.3   4.0   ENE   0.67   9.0   ENE   34.4   37.0   33.9   30.7  30.275  0.00  0.00     0     0.00      0     0.0  0.00   0.0   0.191   0.000   68.1    51   49.3   66.9   9.49  .0752    0.000   202    7    100.0   10 
10/25/20  5:50a   37.3   37.5   37.2    72   29.1   6.0   ENE   1.00  11.0    NE   32.5   36.8   32.0   28.8  30.282  0.00  0.00     0     0.00      0     0.0  0.00   0.0   0.192   0.000   68.0    51   49.2   66.8   9.49  .0752    0.000   203    7    100.0   10 
10/25/20  6:00a   37.3   37.3   37.2    72   29.1   6.0   ENE   1.00  10.0   ENE   32.5   36.8   32.0   28.8  30.285  0.00  0.00     0     0.00      0     0.0  0.00   0.0   0.192   0.000   68.0    51   49.2   66.8   9.49  .0752    0.001   202    7    100.0   10 
10/25/20  6:10a   37.0   37.3   36.9    72   28.8   5.0   ENE   0.83   9.0   ENE   32.9   36.5   32.4   29.1  30.289  0.00  0.00     0     0.00      0     0.0  0.00   0.0   0.194   0.000   68.0    51   49.2   66.8   9.49  .0752    0.000   205    7    100.0   10 
10/25/20  6:20a   37.0   37.0   36.9    72   28.8   6.0   ENE   1.00  12.0   ENE   32.2   36.5   31.7   28.4  30.299  0.00  0.00     0     0.00      0     0.0  0.00   0.0   0.194   0.000   68.1    51   49.3   66.9   9.49  .0753    0.000   201    7    100.0   10 
10/25/20  6:30a   36.8   37.1   36.8    72   28.6   4.0   ENE   0.67  11.0    NE   33.6   36.3   33.1   29.8  30.302  0.00  0.00     0     0.00      0     0.0  0.00   0.0   0.196   0.000   68.3    51   49.5   67.1   9.48  .0752    0.000   202    7    100.0   10 
10/25/20  6:40a   36.8   36.9   36.8    71   28.3   4.0   ENE   0.67   9.0    NE   33.6   36.2   33.0   29.7  30.309  0.00  0.00     0     0.00      0     0.0  0.00   0.0   0.196   0.000   68.5    51   49.7   67.2   9.48  .0752    0.000   204    7    100.0   10 
10/25/20  6:50a   36.6   36.8   36.6    71   28.1   5.0   ENE   0.83  10.0   ENE   32.5   36.0   31.9   28.6  30.313  0.00  0.00     0     0.00      0     0.0  0.00   0.0   0.197   0.000   68.7    51   49.8   67.4   9.48  .0752    0.000   203    7    100.0   10 
10/25/20  7:00a   36.5   36.6   36.5    71   28.0   6.0   ENE   1.00  12.0    NE   31.6   35.9   31.0   27.7  30.313  0.00  0.00     0     0.00      0     0.0  0.00   0.0   0.198   0.000   68.9    51   50.0   67.6   9.47  .0752    0.001   199    7    100.0   10 
10/25/20  7:10a   36.4   36.5   36.4    71   27.9   6.0   ENE   1.00  11.0    NE   31.5   35.8   30.9   27.6  30.313  0.00  0.00     0     0.00      0     0.0  0.00   0.0   0.199   0.000   69.2    50   49.8   67.7   9.27  .0751    0.000   203    7    100.0   10 
10/25/20  7:20a   36.3   36.4   36.3    71   27.8   5.0   ENE   0.83  11.0   ENE   32.1   35.7   31.5   28.2  30.316  0.00  0.00     0     0.00      0     0.0  0.00   0.0   0.199   0.000   69.5    50   50.0   67.9   9.26  .0751    0.000   204    7    100.0   10 
10/25/20  7:30a   36.2   36.3   36.1    70   27.4   4.0   ENE   0.67   9.0    NE   32.9   35.6   32.3   29.0  30.314  0.00  0.00     0     0.00      0     0.0  0.00   0.0   0.200   0.000   69.7    50   50.2   68.1   9.26  .0750    0.000   204    7    100.0   10 
10/25/20  7:40a   36.3   36.4   36.2    69   27.1   4.0   ENE   0.67  10.0    NE   33.0   35.7   32.4   29.1  30.321  0.00  0.00     0     0.00      0     0.0  0.00   0.0   0.199   0.000   69.6    50   50.1   68.0   9.26  .0751    0.000   203    7    100.0   10 
10/25/20  7:50a   36.3   36.4   36.3    69   27.1   6.0   ENE   1.00  12.0   ENE   31.4   35.7   30.8   27.7  30.327  0.00  0.00     6     0.09      9     0.0  0.00   0.0   0.199   0.000   69.4    51   50.5   68.0   9.46  .0751    0.000   203    7    100.0   10 
10/25/20  8:00a   36.2   36.3   36.2    69   27.0   5.0   ENE   0.83  11.0    NE   32.0   35.6   31.4   28.4  30.329  0.00  0.00    11     0.16     12     0.0  0.00   0.0   0.200   0.000   69.3    51   50.4   67.9   9.46  .0751    0.001   205    7    100.0   10 
10/25/20  8:10a   36.3   36.3   36.2    68   26.7   5.0   ENE   0.83  12.0    NE   32.1   35.7   31.5   28.6  30.341  0.00  0.00    16     0.23     18     0.0  0.00   0.0   0.199   0.000   69.4    51   50.5   68.0   9.46  .0751    0.000   204    7    100.0   10 
10/25/20  8:20a   36.5   36.6   36.3    67   26.6   6.0   ENE   1.00  12.0    NE   31.6   35.8   30.9   28.0  30.346  0.00  0.00    19     0.27     21     0.0  0.00   0.0   0.198   0.000   69.5    51   50.6   68.0   9.46  .0751    0.000   203    7    100.0   10 
10/25/20  8:30a   36.5   36.6   36.5    67   26.6   6.0   ENE   1.00  12.0   ENE   31.6   35.8   30.9   28.1  30.347  0.00  0.00    23     0.33     25     0.0  0.00   0.0   0.198   0.000   69.4    51   50.5   68.0   9.46  .0752    0.000   202    7    100.0   10 
10/25/20  8:40a   36.5   36.6   36.5    67   26.6   6.0   ENE   1.00  12.0   ENE   31.6   35.8   30.9   28.2  30.351  0.00  0.00    26     0.37     26     0.0  0.00   0.0   0.198   0.000   69.2    51   50.3   67.8   9.47  .0752    0.000   202    7    100.0   10 
10/25/20  8:50a   36.8   36.8   36.5    66   26.5   6.0   ENE   1.00  12.0   ENE   31.9   36.1   31.2   30.0  30.358  0.00  0.00    29     0.42     30     0.0  0.00   0.0   0.196   0.000   69.2    51   50.3   67.8   9.47  .0752    0.000   202    7    100.0   10 
10/25/20  9:00a   37.0   37.0   36.8    67   27.1   6.0   ENE   1.00  12.0    NE   32.2   36.3   31.5   30.6  30.366  0.00  0.00    37     0.53     77     0.0  0.00   0.0   0.194   0.000   69.1    51   50.2   67.8   9.47  .0753    0.001   203    7    100.0   10 
10/25/20  9:10a   37.4   37.4   37.0    67   27.4   6.0   ENE   1.00  12.0   ENE   32.7   36.7   32.0   35.2  30.364  0.00  0.00   152     2.18    169     0.0  0.00   0.0   0.192   0.000   69.2    51   50.3   67.8   9.47  .0752    0.000   203    7    100.0   10 
10/25/20  9:20a   37.7   37.7   37.3    67   27.7   5.0   ENE   0.83  13.0    NE   33.8   37.0   33.1   37.4  30.365  0.00  0.00   188     2.70    200     0.1  0.01   0.5   0.190   0.000   69.1    51   50.2   67.8   9.47  .0753    0.000   203    7    100.0   10 
10/25/20  9:30a   38.3   38.3   37.7    66   27.9   4.0   ENE   0.67   9.0    NE   35.4   37.6   34.7   39.9  30.371  0.00  0.00   215     3.08    230     0.5  0.04   0.6   0.185   0.000   69.0    51   50.1   67.7   9.47  .0753    0.000   202    7    100.0   10 
10/25/20  9:40a   39.3   39.3   38.3    62   27.4   5.0   ENE   0.83  12.0   ENE   35.7   38.5   34.9   40.8  30.370  0.00  0.00   242     3.47    253     0.6  0.04   0.7   0.178   0.000   69.0    51   50.1   67.7   9.47  .0753    0.000   202    7    100.0   10 
10/25/20  9:50a   40.5   40.5   39.3    60   27.7   5.0   ENE   0.83  11.0   NNE   37.1   39.7   36.3   42.8  30.366  0.00  0.00   268     3.84    278     0.7  0.05   0.8   0.170   0.000   68.9    51   50.0   67.6   9.47  .0753    0.000   201    7    100.0   10 
10/25/20 10:00a   41.9   41.9   40.6    57   27.8   5.0   ENE   0.83  11.0   NNE   38.7   41.0   37.8   44.8  30.365  0.00  0.00   291     4.17    302     0.9  0.06   0.9   0.160   0.000   68.9    51   50.0   67.6   9.47  .0753    0.004   203    7    100.0   10 
10/25/20 10:10a   43.0   43.0   41.9    57   28.8   4.0   ENE   0.67  10.0    NE   40.8   42.1   39.9   47.3  30.368  0.00  0.00   315     4.52    325     1.0  0.07   1.1   0.153   0.000   68.8    51   49.9   67.5   9.47  .0753    0.000   200    7    100.0   10 
10/25/20 10:20a   43.9   43.9   43.0    51   26.9   4.0    NE   0.67  10.0    NE   41.8   42.8   40.7   48.4  30.371  0.00  0.00   339     4.86    350     1.1  0.08   1.2   0.147   0.000   68.8    51   49.9   67.5   9.47  .0753    0.000   199    7    100.0   10 
10/25/20 10:30a   44.7   44.7   43.9    49   26.7   3.0    NE   0.50   8.0   NNE   43.7   43.6   42.6   50.6  30.371  0.00  0.00   362     5.19    373     1.3  0.09   1.3   0.141   0.000   68.8    51   49.9   67.5   9.47  .0753    0.000   202    7    100.0   10 
10/25/20 10:40a   44.7   45.0   44.7    45   24.6   2.0     S   0.33   5.0     S   44.7   43.4   43.4   51.6  30.373  0.00  0.00   384     5.50    394     1.4  0.10   1.5   0.141   0.000   68.8    50   49.4   67.4   9.27  .0753    0.000   204    7    100.0   10 
10/25/20 10:50a   45.1   45.1   44.7    44   24.5   3.0     N   0.50   8.0     N   44.1   43.8   42.8   51.2  30.373  0.00  0.00   405     5.81    413     1.6  0.11   1.6   0.138   0.000   68.8    50   49.4   67.4   9.27  .0753    0.000   204    7    100.0   10 
10/25/20 11:00a   45.8   45.9   45.1    39   22.2   3.0     S   0.50   8.0     W   45.0   44.3   43.5   52.1  30.357  0.00  0.00   425     6.09    432     1.7  0.12   1.8   0.133   0.000   68.8    50   49.4   67.4   9.27  .0753    0.007   200    7    100.0   10 
10/25/20 11:10a   46.0   46.0   45.6    39   22.4   4.0     S   0.67  10.0    NE   44.2   44.5   42.7   51.4  30.361  0.00  0.00   444     6.36    452     1.8  0.13   1.9   0.132   0.000   68.9    50   49.5   67.5   9.27  .0753    0.000   203    7    100.0   10 
10/25/20 11:20a   46.3   46.3   46.0    38   22.0   5.0   WSW   0.83  11.0     W   43.9   44.7   42.3   51.1  30.360  0.00  0.00   461     6.61    468     2.0  0.14   2.0   0.130   0.000   68.8    49   48.9   67.3   9.07  .0753    0.000   204    7    100.0   10 
10/25/20 11:30a   47.1   47.1   46.3    36   21.5   3.0    SW   0.50   7.0     W   46.4   45.4   44.7   53.6  30.356  0.00  0.00   477     6.84    485     2.1  0.15   2.2   0.124   0.000   68.9    49   48.9   67.4   9.07  .0753    0.000   203    7    100.0   10 
10/25/20 11:40a   48.4   48.4   47.2    34   21.3   4.0   ENE   0.67  11.0     E   47.0   46.7   45.3   54.3  30.355  0.00  0.00   490     7.02    496     2.2  0.16   2.3   0.115   0.000   69.0    49   49.0   67.5   9.07  .0753    0.000   202    7    100.0   10 
10/25/20 11:50a   49.2   49.2   48.4    34   22.0   3.0   ESE   0.50  17.0    NE   48.7   47.5   47.0   56.1  30.358  0.00  0.00   504     7.22    510     2.3  0.16   2.4   0.110   0.000   69.0    49   49.0   67.5   9.07  .0753    0.000   203    7    100.0   10 
10/25/20 12:00p   50.1   50.1   49.2    33   22.1   5.0   ENE   0.83  12.0   NNE   48.3   48.3   46.5   55.7  30.362  0.00  0.00   516     7.40    520     2.4  0.17   2.5   0.103   0.000   69.1    49   49.1   67.6   9.07  .0753    0.010   203    7    100.0   10 
10/25/20 12:10p   50.3   50.5   50.1    33   22.3   6.0    NE   1.00  16.0   ENE   48.1   48.5   46.3   55.5  30.363  0.00  0.00   526     7.54    529     2.5  0.18   2.6   0.102   0.000   69.1    49   49.1   67.6   9.07  .0753    0.000   204    7    100.0   10 
10/25/20 12:20p   50.7   50.7   50.3    33   22.6   6.0    NE   1.00  14.0    NE   48.5   48.8   46.6   55.9  30.367  0.00  0.00   535     7.67    538     2.6  0.19   2.6   0.099   0.000   69.1    49   49.1   67.6   9.07  .0753    0.000   203    7    100.0   10 
10/25/20 12:30p   51.1   51.2   50.6    31   21.5   5.0   ENE   0.83  14.0    NE   49.5   49.0   47.4   56.7  30.365  0.00  0.00   542     7.77    547     2.7  0.19   2.7   0.097   0.000   69.2    49   49.2   67.6   9.07  .0753    0.000   204    7    100.0   10 
10/25/20 12:40p   52.4   52.4   51.2    32   23.4   4.0   ENE   0.67  12.0   NNE   51.6   50.0   49.2   58.5  30.363  0.00  0.00   548     7.86    550     2.7  0.19   2.7   0.087   0.000   69.2    49   49.2   67.6   9.07  .0753    0.000   203    7    100.0   10 
10/25/20 12:50p   53.2   53.2   52.5    30   22.5   5.0   ENE   0.83  12.0    NE   51.9   50.6   49.3   58.6  30.362  0.00  0.00   552     7.91    554     2.7  0.19   2.8   0.082   0.000   69.2    49   49.2   67.6   9.07  .0753    0.000   203    7    100.0   10 
10/25/20  1:00p   52.7   53.2   52.7    28   20.5   8.0   ENE   1.33  17.0    NE   49.7   50.0   47.0   55.7  30.364  0.00  0.00   554     7.94    555     2.8  0.20   2.8   0.085   0.000   69.3    49   49.3   67.7   9.06  .0752    0.013   204    7    100.0   10 
10/25/20  1:10p   53.4   53.4   52.7    30   22.7   5.0   ENE   0.83  13.0     E   52.2   50.7   49.5   58.8  30.362  0.00  0.00   555     7.96    555     2.8  0.20   2.8   0.081   0.000   69.3    49   49.3   67.7   9.06  .0752    0.000   204    7    100.0   10 
10/25/20  1:20p   54.1   54.1   53.4    29   22.5   6.0   ENE   1.00  16.0   ENE   52.5   51.2   49.6   58.9  30.361  0.00  0.00   555     7.96    557     2.7  0.19   2.8   0.076   0.000   69.3    49   49.3   67.7   9.06  .0752    0.000   201    7    100.0   10 
10/25/20  1:30p   54.6   54.6   54.1    29   22.9   4.0   ENE   0.67  11.0   ENE   54.2   51.7   51.3   60.6  30.356  0.00  0.00   554     7.94    555     2.7  0.19   2.7   0.072   0.000   69.4    48   48.9   67.7   8.86  .0752    0.000   203    7    100.0   10 
10/25/20  1:40p   54.8   54.8   54.5    28   22.3   4.0   ENE   0.67  13.0     E   54.4   51.7   51.3   60.6  30.354  0.00  0.00   550     7.88    552     2.7  0.19   2.7   0.071   0.000   69.7    49   49.7   68.0   9.06  .0752    0.000   204    7    100.0   10 
10/25/20  1:50p   54.8   55.1   54.8    27   21.4   7.0    NE   1.17  14.0    NE   53.0   51.6   49.8   58.9  30.353  0.00  0.00   547     7.84    550     2.6  0.19   2.6   0.071   0.000   70.1    49   50.0   68.3   9.05  .0751    0.000   203    7    100.0   10 
10/25/20  2:00p   54.8   54.9   54.7    28   22.3   6.0   ENE   1.00  16.0   ENE   53.4   51.7   50.3   59.6  30.351  0.00  0.00   540     7.74    543     2.5  0.18   2.6   0.071   0.000   70.5    50   51.0   68.9   9.25  .0750    0.014   203    7    100.0   10 
10/25/20  2:10p   55.2   55.3   54.8    27   21.8   7.0   ENE   1.17  17.0   ENE   53.4   52.0   50.2   59.2  30.352  0.00  0.00   531     7.61    536     2.4  0.17   2.5   0.068   0.000   70.9    50   51.3   69.5   9.25  .0749    0.000   204    7    100.0   10 
10/25/20  2:20p   55.5   55.5   55.0    27   22.0   7.0   ENE   1.17  13.0    NE   53.8   52.2   50.5   59.5  30.347  0.00  0.00   522     7.48    526     2.3  0.16   2.4   0.066   0.000   71.3    49   51.1   70.0   9.05  .0749    0.000   204    7    100.0   10 
10/25/20  2:30p   55.9   55.9   55.4    27   22.4   7.0   ENE   1.17  14.0     E   54.3   52.5   50.9   59.8  30.349  0.00  0.00   509     7.30    517     2.2  0.16   2.2   0.063   0.000   71.6    49   51.4   70.4   9.05  .0748    0.000   201    7    100.0   10 
10/25/20  2:40p   55.8   56.1   55.8    27   22.3   8.0   ENE   1.33  17.0     E   53.5   52.4   50.1   58.5  30.344  0.00  0.00   500     7.17    504     2.1  0.15   2.1   0.064   0.000   71.7    49   51.5   70.5   9.05  .0748    0.000   202    7    100.0   10 
10/25/20  2:50p   56.0   56.0   55.8    26   21.6   7.0   ENE   1.17  13.0   ENE   54.4   52.5   50.9   59.6  30.353  0.00  0.00   487     6.98    492     2.0  0.14   2.0   0.063   0.000   71.8    48   51.0   70.6   8.89  .0748    0.000   203    7    100.0   10 
10/25/20  3:00p   56.7   56.7   56.0    26   22.2   5.0     E   0.83  13.0     E   56.1   53.1   52.5   61.3  30.350  0.00  0.00   472     6.77    478     1.8  0.13   1.9   0.058   0.000   71.9    48   51.1   70.8   8.89  .0748    0.014   203    7    100.0   10 
10/25/20  3:10p   56.7   56.9   56.7    25   21.2   7.0   ENE   1.17  13.0    NE   55.2   53.0   51.5   60.0  30.340  0.00  0.00   456     6.54    462     1.7  0.12   1.8   0.058   0.000   72.0    48   51.2   70.9   8.89  .0747    0.000   204    7    100.0   10 
10/25/20  3:20p   57.3   57.3   56.7    25   21.7   4.0   ENE   0.67  13.0   ENE   57.3   53.5   53.5   62.0  30.335  0.00  0.00   440     6.31    448     1.5  0.11   1.6   0.053   0.000   72.1    48   51.3   71.0   8.89  .0747    0.000   204    7    100.0   10 
10/25/20  3:30p   58.1   58.1   57.3    25   22.4   5.0     E   0.83  12.0     E   57.7   54.2   53.8   62.2  30.339  0.00  0.00   423     6.06    431     1.4  0.10   1.5   0.048   0.000   72.1    48   51.3   71.0   8.89  .0747    0.000   204    7    100.0   10 
10/25/20  3:40p   58.0   58.1   57.8    25   22.3   6.0   ENE   1.00  17.0   ENE   57.2   54.1   53.3   61.6  30.339  0.00  0.00   408     5.85    417     1.3  0.09   1.3   0.049   0.000   72.1    48   51.3   71.0   8.89  .0747    0.000   205    7    100.0   10 
10/25/20  3:50p   58.0   58.1   57.9    23   20.4   7.0   ENE   1.17  14.0     E   56.8   54.0   52.8   60.7  30.342  0.00  0.00   392     5.62    404     1.2  0.09   1.2   0.049   0.000   72.1    48   51.3   71.0   8.89  .0747    0.000   202    7    100.0   10 
10/25/20  4:00p   58.2   58.2   57.8    24   21.5   5.0   ENE   0.83  14.0     E   57.8   54.2   53.8   61.6  30.340  0.00  0.00   365     5.23    374     1.0  0.07   1.1   0.047   0.000   72.0    48   51.2   70.9   8.89  .0747    0.012   203    7    100.0   10 
10/25/20  4:10p   59.1   59.1   58.2    23   21.3   4.0   ENE   0.67   9.0    NE   59.1   54.9   54.9   62.5  30.345  0.00  0.00   349     5.00    369     0.9  0.06   0.9   0.041   0.000   72.0    48   51.2   70.9   8.89  .0748    0.000   203    7    100.0   10 
10/25/20  4:20p   59.1   59.1   58.9    24   22.3   4.0   ENE   0.67  10.0   ENE   59.1   54.9   54.9   62.4  30.350  0.00  0.00   336     4.82    348     0.8  0.06   0.8   0.041   0.000   71.9    48   51.1   70.8   8.89  .0748    0.000   202    7    100.0   10 
10/25/20  4:30p   59.6   59.7   59.1    22   20.7   4.0   ENE   0.67  11.0   ENE   59.6   55.3   55.3   62.5  30.353  0.00  0.00   320     4.59    332     0.6  0.04   0.7   0.038   0.000   71.9    47   50.6   70.6   8.75  .0748    0.000   202    7    100.0   10 
10/25/20  4:40p   59.1   59.6   59.1    28   26.0   3.0     S   0.50  10.0    NE   59.1   55.4   55.4   61.0  30.353  0.00  0.00   239     3.43    279     0.4  0.03   0.6   0.041   0.000   71.8    47   50.5   70.5   8.75  .0748    0.000   204    7    100.0   10 
10/25/20  4:50p   56.1   59.1   56.1    32   26.6   5.0    NE   0.83  15.0   ENE   55.4   53.1   52.4   55.1  30.356  0.00  0.00   144     2.06    162     0.0  0.00   0.0   0.062   0.000   71.8    48   51.0   70.6   8.89  .0748    0.000   204    7    100.0   10 
10/25/20  5:00p   54.8   56.2   54.8    32   25.5   3.0   ENE   0.50  11.0    NE   54.8   52.0   52.0   53.6  30.355  0.00  0.00   108     1.55    125     0.0  0.00   0.0   0.071   0.000   71.7    48   51.0   70.4   8.88  .0748    0.008   203    7    100.0   10 
10/25/20  5:10p   53.9   54.8   53.9    34   26.1   4.0   ENE   0.67   9.0   NNE   53.4   51.4   50.9   52.9  30.355  0.00  0.00   116     1.66    141     0.0  0.00   0.0   0.077   0.000   71.7    48   51.0   70.4   8.88  .0748    0.000   202    7    100.0   10 
10/25/20  5:20p   53.1   53.9   53.1    34   25.4   4.0   ENE   0.67   8.0     E   52.4   50.7   50.0   51.1  30.352  0.00  0.00    89     1.28    107     0.0  0.00   0.0   0.083   0.000   71.6    48   50.9   70.3   8.88  .0748    0.000   203    7    100.0   10 
Email: AdamSPAM@StormwatchersRetreat.com (To send me email remove the word 'SPAM' from my email address.)